sensor_id;sensor_type;location;lat;lon;timestamp;P1;durP1;ratioP1;P2;durP2;ratioP2
59607;SDS011;45426;44.726;10.390;2024-03-08T00:01:14;6.97;;;3.55;;
59607;SDS011;45426;44.726;10.390;2024-03-08T00:03:41;6.57;;;3.28;;
59607;SDS011;45426;44.726;10.390;2024-03-08T00:06:07;6.35;;;3.50;;
59607;SDS011;45426;44.726;10.390;2024-03-08T00:08:32;5.43;;;3.38;;
59607;SDS011;45426;44.726;10.390;2024-03-08T00:10:58;7.72;;;3.40;;
59607;SDS011;45426;44.726;10.390;2024-03-08T00:13:23;7.78;;;3.55;;
59607;SDS011;45426;44.726;10.390;2024-03-08T00:15:50;7.22;;;3.75;;
59607;SDS011;45426;44.726;10.390;2024-03-08T00:18:16;5.25;;;3.25;;
59607;SDS011;45426;44.726;10.390;2024-03-08T00:20:41;7.35;;;3.55;;
59607;SDS011;45426;44.726;10.390;2024-03-08T00:23:07;9.23;;;3.45;;
59607;SDS011;45426;44.726;10.390;2024-03-08T00:25:32;7.88;;;3.63;;
59607;SDS011;45426;44.726;10.390;2024-03-08T00:27:59;9.02;;;3.60;;
59607;SDS011;45426;44.726;10.390;2024-03-08T00:30:25;7.80;;;3.58;;
59607;SDS011;45426;44.726;10.390;2024-03-08T00:32:50;7.47;;;3.60;;
59607;SDS011;45426;44.726;10.390;2024-03-08T00:35:16;7.30;;;3.53;;
59607;SDS011;45426;44.726;10.390;2024-03-08T00:37:41;7.22;;;3.65;;
59607;SDS011;45426;44.726;10.390;2024-03-08T00:40:07;6.47;;;3.40;;
59607;SDS011;45426;44.726;10.390;2024-03-08T00:42:34;5.57;;;3.30;;
59607;SDS011;45426;44.726;10.390;2024-03-08T00:44:59;7.03;;;3.40;;
59607;SDS011;45426;44.726;10.390;2024-03-08T00:47:25;6.10;;;3.40;;
59607;SDS011;45426;44.726;10.390;2024-03-08T00:49:52;7.97;;;3.55;;
59607;SDS011;45426;44.726;10.390;2024-03-08T00:52:18;6.57;;;3.50;;
59607;SDS011;45426;44.726;10.390;2024-03-08T00:54:44;7.25;;;3.42;;
59607;SDS011;45426;44.726;10.390;2024-03-08T00:57:10;6.57;;;3.28;;
59607;SDS011;45426;44.726;10.390;2024-03-08T00:59:37;6.68;;;3.50;;
59607;SDS011;45426;44.726;10.390;2024-03-08T01:02:03;7.40;;;3.50;;
59607;SDS011;45426;44.726;10.390;2024-03-08T01:04:28;7.68;;;3.50;;
59607;SDS011;45426;44.726;10.390;2024-03-08T01:06:55;7.78;;;3.83;;
59607;SDS011;45426;44.726;10.390;2024-03-08T01:09:22;6.32;;;3.55;;
59607;SDS011;45426;44.726;10.390;2024-03-08T01:11:48;9.38;;;4.00;;
59607;SDS011;45426;44.726;10.390;2024-03-08T01:14:14;7.57;;;3.80;;
59607;SDS011;45426;44.726;10.390;2024-03-08T01:16:40;6.57;;;3.95;;
59607;SDS011;45426;44.726;10.390;2024-03-08T01:19:06;8.73;;;4.38;;
59607;SDS011;45426;44.726;10.390;2024-03-08T01:21:31;7.57;;;4.07;;
59607;SDS011;45426;44.726;10.390;2024-03-08T01:23:57;9.95;;;4.38;;
59607;SDS011;45426;44.726;10.390;2024-03-08T01:26:22;9.35;;;4.57;;
59607;SDS011;45426;44.726;10.390;2024-03-08T01:28:48;8.55;;;4.80;;
59607;SDS011;45426;44.726;10.390;2024-03-08T01:31:14;9.70;;;5.20;;
59607;SDS011;45426;44.726;10.390;2024-03-08T01:33:41;9.88;;;5.00;;
59607;SDS011;45426;44.726;10.390;2024-03-08T01:36:07;9.18;;;4.75;;
59607;SDS011;45426;44.726;10.390;2024-03-08T01:38:33;9.02;;;4.75;;
59607;SDS011;45426;44.726;10.390;2024-03-08T01:40:58;8.30;;;4.70;;
59607;SDS011;45426;44.726;10.390;2024-03-08T01:43:28;11.43;;;4.80;;
59607;SDS011;45426;44.726;10.390;2024-03-08T01:45:54;7.22;;;4.25;;
59607;SDS011;45426;44.726;10.390;2024-03-08T01:48:22;8.52;;;4.13;;
59607;SDS011;45426;44.726;10.390;2024-03-08T01:50:49;9.50;;;4.70;;
59607;SDS011;45426;44.726;10.390;2024-03-08T01:53:15;9.93;;;4.50;;
59607;SDS011;45426;44.726;10.390;2024-03-08T01:55:43;6.53;;;4.03;;
59607;SDS011;45426;44.726;10.390;2024-03-08T01:58:11;9.90;;;4.72;;
59607;SDS011;45426;44.726;10.390;2024-03-08T02:00:40;11.95;;;5.80;;
59607;SDS011;45426;44.726;10.390;2024-03-08T02:03:08;15.00;;;7.82;;
59607;SDS011;45426;44.726;10.390;2024-03-08T02:05:34;20.00;;;9.65;;
59607;SDS011;45426;44.726;10.390;2024-03-08T02:08:00;19.35;;;10.20;;
59607;SDS011;45426;44.726;10.390;2024-03-08T02:10:27;19.35;;;10.52;;
59607;SDS011;45426;44.726;10.390;2024-03-08T02:12:53;21.05;;;10.27;;
59607;SDS011;45426;44.726;10.390;2024-03-08T02:15:19;22.08;;;11.23;;
59607;SDS011;45426;44.726;10.390;2024-03-08T02:17:44;26.45;;;11.55;;
59607;SDS011;45426;44.726;10.390;2024-03-08T02:20:10;24.20;;;12.20;;
59607;SDS011;45426;44.726;10.390;2024-03-08T02:22:38;26.35;;;13.45;;
59607;SDS011;45426;44.726;10.390;2024-03-08T02:25:03;26.38;;;13.15;;
59607;SDS011;45426;44.726;10.390;2024-03-08T02:27:30;27.45;;;13.57;;
59607;SDS011;45426;44.726;10.390;2024-03-08T02:29:56;27.33;;;13.70;;
59607;SDS011;45426;44.726;10.390;2024-03-08T02:32:22;25.83;;;13.23;;
59607;SDS011;45426;44.726;10.390;2024-03-08T02:34:48;26.27;;;12.80;;
59607;SDS011;45426;44.726;10.390;2024-03-08T02:37:14;25.85;;;13.50;;
59607;SDS011;45426;44.726;10.390;2024-03-08T02:39:40;26.30;;;13.38;;
59607;SDS011;45426;44.726;10.390;2024-03-08T02:42:06;25.25;;;13.13;;
59607;SDS011;45426;44.726;10.390;2024-03-08T02:44:32;27.67;;;13.63;;
59607;SDS011;45426;44.726;10.390;2024-03-08T02:46:58;26.00;;;13.20;;
59607;SDS011;45426;44.726;10.390;2024-03-08T02:49:24;25.08;;;12.93;;
59607;SDS011;45426;44.726;10.390;2024-03-08T02:51:51;26.27;;;13.60;;
59607;SDS011;45426;44.726;10.390;2024-03-08T02:54:22;25.38;;;12.60;;
59607;SDS011;45426;44.726;10.390;2024-03-08T02:56:47;23.13;;;12.38;;
59607;SDS011;45426;44.726;10.390;2024-03-08T02:59:15;24.35;;;12.73;;
59607;SDS011;45426;44.726;10.390;2024-03-08T03:01:42;25.25;;;12.00;;
59607;SDS011;45426;44.726;10.390;2024-03-08T03:04:08;21.88;;;11.15;;
59607;SDS011;45426;44.726;10.390;2024-03-08T03:06:34;19.42;;;10.63;;
59607;SDS011;45426;44.726;10.390;2024-03-08T03:09:00;16.83;;;8.90;;
59607;SDS011;45426;44.726;10.390;2024-03-08T03:11:26;13.98;;;7.05;;
59607;SDS011;45426;44.726;10.390;2024-03-08T03:13:52;20.02;;;6.10;;
59607;SDS011;45426;44.726;10.390;2024-03-08T03:16:17;11.70;;;4.80;;
59607;SDS011;45426;44.726;10.390;2024-03-08T03:18:52;12.02;;;4.97;;
59607;SDS011;45426;44.726;10.390;2024-03-08T03:21:17;11.38;;;4.53;;
59607;SDS011;45426;44.726;10.390;2024-03-08T03:23:43;8.50;;;3.90;;
59607;SDS011;45426;44.726;10.390;2024-03-08T03:26:09;8.90;;;4.03;;
59607;SDS011;45426;44.726;10.390;2024-03-08T03:28:38;8.88;;;4.43;;
59607;SDS011;45426;44.726;10.390;2024-03-08T03:31:08;9.60;;;4.22;;
59607;SDS011;45426;44.726;10.390;2024-03-08T03:33:39;8.88;;;4.30;;
59607;SDS011;45426;44.726;10.390;2024-03-08T03:36:05;10.13;;;4.30;;
59607;SDS011;45426;44.726;10.390;2024-03-08T03:38:30;7.90;;;4.20;;
59607;SDS011;45426;44.726;10.390;2024-03-08T03:40:56;9.13;;;4.53;;
59607;SDS011;45426;44.726;10.390;2024-03-08T03:43:29;11.02;;;4.95;;
59607;SDS011;45426;44.726;10.390;2024-03-08T03:45:54;13.35;;;6.65;;
59607;SDS011;45426;44.726;10.390;2024-03-08T03:48:20;12.38;;;6.80;;
59607;SDS011;45426;44.726;10.390;2024-03-08T03:50:46;14.75;;;7.45;;
59607;SDS011;45426;44.726;10.390;2024-03-08T03:53:12;17.05;;;7.38;;
59607;SDS011;45426;44.726;10.390;2024-03-08T03:55:38;16.27;;;7.10;;
59607;SDS011;45426;44.726;10.390;2024-03-08T03:58:03;14.88;;;7.18;;
59607;SDS011;45426;44.726;10.390;2024-03-08T04:00:29;17.48;;;7.35;;
59607;SDS011;45426;44.726;10.390;2024-03-08T04:02:55;16.38;;;7.65;;
59607;SDS011;45426;44.726;10.390;2024-03-08T04:05:24;18.98;;;9.02;;
59607;SDS011;45426;44.726;10.390;2024-03-08T04:07:49;19.30;;;8.80;;
59607;SDS011;45426;44.726;10.390;2024-03-08T04:10:15;23.55;;;10.50;;
59607;SDS011;45426;44.726;10.390;2024-03-08T04:12:40;23.65;;;9.93;;
59607;SDS011;45426;44.726;10.390;2024-03-08T04:15:06;21.77;;;9.77;;
59607;SDS011;45426;44.726;10.390;2024-03-08T04:17:32;22.48;;;9.77;;
59607;SDS011;45426;44.726;10.390;2024-03-08T04:20:04;20.92;;;9.60;;
59607;SDS011;45426;44.726;10.390;2024-03-08T04:22:37;15.00;;;6.93;;
59607;SDS011;45426;44.726;10.390;2024-03-08T04:25:04;15.30;;;7.22;;
59607;SDS011;45426;44.726;10.390;2024-03-08T04:27:31;13.68;;;6.25;;
59607;SDS011;45426;44.726;10.390;2024-03-08T04:29:57;11.13;;;5.03;;
59607;SDS011;45426;44.726;10.390;2024-03-08T04:32:23;9.00;;;4.30;;
59607;SDS011;45426;44.726;10.390;2024-03-08T04:34:49;10.15;;;4.72;;
59607;SDS011;45426;44.726;10.390;2024-03-08T04:37:14;10.98;;;4.75;;
59607;SDS011;45426;44.726;10.390;2024-03-08T04:39:41;11.00;;;5.78;;
59607;SDS011;45426;44.726;10.390;2024-03-08T04:42:07;12.48;;;5.85;;
59607;SDS011;45426;44.726;10.390;2024-03-08T04:44:35;13.43;;;5.53;;
59607;SDS011;45426;44.726;10.390;2024-03-08T04:47:02;12.40;;;5.68;;
59607;SDS011;45426;44.726;10.390;2024-03-08T04:49:30;11.38;;;5.20;;
59607;SDS011;45426;44.726;10.390;2024-03-08T04:51:57;8.75;;;4.35;;
59607;SDS011;45426;44.726;10.390;2024-03-08T04:54:22;13.68;;;5.55;;
59607;SDS011;45426;44.726;10.390;2024-03-08T04:56:47;13.55;;;6.35;;
59607;SDS011;45426;44.726;10.390;2024-03-08T04:59:13;10.13;;;4.88;;
59607;SDS011;45426;44.726;10.390;2024-03-08T05:01:39;9.98;;;4.90;;
59607;SDS011;45426;44.726;10.390;2024-03-08T05:04:04;8.88;;;3.70;;
59607;SDS011;45426;44.726;10.390;2024-03-08T05:06:30;6.70;;;3.47;;
59607;SDS011;45426;44.726;10.390;2024-03-08T05:08:56;6.05;;;3.15;;
59607;SDS011;45426;44.726;10.390;2024-03-08T05:11:21;7.28;;;3.50;;
59607;SDS011;45426;44.726;10.390;2024-03-08T05:13:48;6.22;;;3.22;;
59607;SDS011;45426;44.726;10.390;2024-03-08T05:16:13;5.75;;;3.00;;
59607;SDS011;45426;44.726;10.390;2024-03-08T05:18:40;5.90;;;3.10;;
59607;SDS011;45426;44.726;10.390;2024-03-08T05:21:07;5.90;;;2.90;;
59607;SDS011;45426;44.726;10.390;2024-03-08T05:23:34;4.93;;;3.10;;
59607;SDS011;45426;44.726;10.390;2024-03-08T05:25:59;6.20;;;3.28;;
59607;SDS011;45426;44.726;10.390;2024-03-08T05:28:26;8.07;;;3.38;;
59607;SDS011;45426;44.726;10.390;2024-03-08T05:30:51;7.93;;;3.40;;
59607;SDS011;45426;44.726;10.390;2024-03-08T05:33:17;5.78;;;3.20;;
59607;SDS011;45426;44.726;10.390;2024-03-08T05:35:42;6.40;;;3.00;;
59607;SDS011;45426;44.726;10.390;2024-03-08T05:38:08;5.25;;;2.88;;
59607;SDS011;45426;44.726;10.390;2024-03-08T05:40:33;6.38;;;3.35;;
59607;SDS011;45426;44.726;10.390;2024-03-08T05:42:59;6.45;;;3.60;;
59607;SDS011;45426;44.726;10.390;2024-03-08T05:45:24;9.05;;;3.90;;
59607;SDS011;45426;44.726;10.390;2024-03-08T05:47:50;10.75;;;3.75;;
59607;SDS011;45426;44.726;10.390;2024-03-08T05:50:17;8.23;;;3.58;;
59607;SDS011;45426;44.726;10.390;2024-03-08T05:52:42;8.88;;;4.60;;
59607;SDS011;45426;44.726;10.390;2024-03-08T05:55:08;9.25;;;3.80;;
59607;SDS011;45426;44.726;10.390;2024-03-08T05:57:35;9.23;;;4.00;;
59607;SDS011;45426;44.726;10.390;2024-03-08T06:00:05;11.50;;;4.30;;
59607;SDS011;45426;44.726;10.390;2024-03-08T06:02:31;12.98;;;4.32;;
59607;SDS011;45426;44.726;10.390;2024-03-08T06:04:56;7.65;;;3.92;;
59607;SDS011;45426;44.726;10.390;2024-03-08T06:07:23;8.10;;;3.67;;
59607;SDS011;45426;44.726;10.390;2024-03-08T06:09:48;9.25;;;3.83;;
59607;SDS011;45426;44.726;10.390;2024-03-08T06:12:14;10.30;;;4.68;;
59607;SDS011;45426;44.726;10.390;2024-03-08T06:14:44;9.63;;;4.57;;
59607;SDS011;45426;44.726;10.390;2024-03-08T06:17:10;12.30;;;5.80;;
59607;SDS011;45426;44.726;10.390;2024-03-08T06:19:36;13.25;;;5.93;;
59607;SDS011;45426;44.726;10.390;2024-03-08T06:22:01;14.25;;;6.55;;
59607;SDS011;45426;44.726;10.390;2024-03-08T06:24:30;16.10;;;7.68;;
59607;SDS011;45426;44.726;10.390;2024-03-08T06:26:56;22.35;;;8.77;;
59607;SDS011;45426;44.726;10.390;2024-03-08T06:29:22;21.23;;;9.27;;
59607;SDS011;45426;44.726;10.390;2024-03-08T06:31:48;24.85;;;10.27;;
59607;SDS011;45426;44.726;10.390;2024-03-08T06:34:15;23.23;;;9.82;;
59607;SDS011;45426;44.726;10.390;2024-03-08T06:36:40;27.27;;;10.43;;
59607;SDS011;45426;44.726;10.390;2024-03-08T06:39:06;25.83;;;11.20;;
59607;SDS011;45426;44.726;10.390;2024-03-08T06:41:35;27.58;;;11.23;;
59607;SDS011;45426;44.726;10.390;2024-03-08T06:44:01;31.98;;;12.63;;
59607;SDS011;45426;44.726;10.390;2024-03-08T06:46:26;40.03;;;14.55;;
59607;SDS011;45426;44.726;10.390;2024-03-08T06:48:52;35.88;;;14.00;;
59607;SDS011;45426;44.726;10.390;2024-03-08T06:51:17;35.08;;;14.13;;
59607;SDS011;45426;44.726;10.390;2024-03-08T06:53:43;38.58;;;14.07;;
59607;SDS011;45426;44.726;10.390;2024-03-08T06:56:09;33.40;;;13.50;;
59607;SDS011;45426;44.726;10.390;2024-03-08T06:58:34;37.83;;;14.82;;
59607;SDS011;45426;44.726;10.390;2024-03-08T07:01:00;34.97;;;14.02;;
59607;SDS011;45426;44.726;10.390;2024-03-08T07:03:29;34.38;;;14.88;;
59607;SDS011;45426;44.726;10.390;2024-03-08T07:05:55;37.30;;;14.77;;
59607;SDS011;45426;44.726;10.390;2024-03-08T07:08:23;31.50;;;13.45;;
59607;SDS011;45426;44.726;10.390;2024-03-08T07:10:48;29.23;;;13.45;;
59607;SDS011;45426;44.726;10.390;2024-03-08T07:13:14;32.70;;;12.88;;
59607;SDS011;45426;44.726;10.390;2024-03-08T07:15:40;29.27;;;12.18;;
59607;SDS011;45426;44.726;10.390;2024-03-08T07:18:05;30.00;;;12.43;;
59607;SDS011;45426;44.726;10.390;2024-03-08T07:20:34;25.35;;;11.75;;
59607;SDS011;45426;44.726;10.390;2024-03-08T07:22:59;29.52;;;11.98;;
59607;SDS011;45426;44.726;10.390;2024-03-08T07:25:25;27.35;;;11.63;;
59607;SDS011;45426;44.726;10.390;2024-03-08T07:27:54;29.50;;;12.15;;
59607;SDS011;45426;44.726;10.390;2024-03-08T07:30:21;30.58;;;11.95;;
59607;SDS011;45426;44.726;10.390;2024-03-08T07:33:09;30.92;;;13.52;;
59607;SDS011;45426;44.726;10.390;2024-03-08T07:35:37;31.45;;;13.63;;
59607;SDS011;45426;44.726;10.390;2024-03-08T07:38:09;33.67;;;14.07;;
59607;SDS011;45426;44.726;10.390;2024-03-08T07:40:35;35.75;;;17.13;;
59607;SDS011;45426;44.726;10.390;2024-03-08T07:43:03;38.83;;;16.45;;
59607;SDS011;45426;44.726;10.390;2024-03-08T07:45:28;39.30;;;17.27;;
59607;SDS011;45426;44.726;10.390;2024-03-08T07:47:55;40.88;;;16.02;;
59607;SDS011;45426;44.726;10.390;2024-03-08T07:50:21;41.00;;;18.10;;
59607;SDS011;45426;44.726;10.390;2024-03-08T07:52:47;37.17;;;17.02;;
59607;SDS011;45426;44.726;10.390;2024-03-08T07:55:13;38.25;;;17.75;;
59607;SDS011;45426;44.726;10.390;2024-03-08T07:57:40;40.25;;;18.13;;
59607;SDS011;45426;44.726;10.390;2024-03-08T08:00:07;41.40;;;18.20;;
59607;SDS011;45426;44.726;10.390;2024-03-08T08:02:34;40.75;;;17.95;;
59607;SDS011;45426;44.726;10.390;2024-03-08T08:05:01;40.25;;;18.05;;
59607;SDS011;45426;44.726;10.390;2024-03-08T08:07:26;44.65;;;19.52;;
59607;SDS011;45426;44.726;10.390;2024-03-08T08:09:52;42.05;;;19.75;;
59607;SDS011;45426;44.726;10.390;2024-03-08T08:12:19;40.97;;;19.20;;
59607;SDS011;45426;44.726;10.390;2024-03-08T08:14:46;41.30;;;20.15;;
59607;SDS011;45426;44.726;10.390;2024-03-08T08:17:11;44.15;;;19.30;;
59607;SDS011;45426;44.726;10.390;2024-03-08T08:19:37;41.72;;;18.85;;
59607;SDS011;45426;44.726;10.390;2024-03-08T08:22:03;39.63;;;19.10;;
59607;SDS011;45426;44.726;10.390;2024-03-08T08:24:29;41.33;;;18.58;;
59607;SDS011;45426;44.726;10.390;2024-03-08T08:26:54;43.50;;;19.65;;
59607;SDS011;45426;44.726;10.390;2024-03-08T08:29:20;41.95;;;17.75;;
59607;SDS011;45426;44.726;10.390;2024-03-08T08:31:47;40.95;;;18.60;;
59607;SDS011;45426;44.726;10.390;2024-03-08T08:34:12;41.15;;;19.17;;
59607;SDS011;45426;44.726;10.390;2024-03-08T08:36:39;40.22;;;17.95;;
59607;SDS011;45426;44.726;10.390;2024-03-08T08:39:04;40.75;;;17.70;;
59607;SDS011;45426;44.726;10.390;2024-03-08T08:41:37;37.13;;;18.00;;
59607;SDS011;45426;44.726;10.390;2024-03-08T08:44:03;41.13;;;18.30;;
59607;SDS011;45426;44.726;10.390;2024-03-08T08:46:28;42.15;;;18.20;;
59607;SDS011;45426;44.726;10.390;2024-03-08T08:48:54;42.45;;;18.13;;
59607;SDS011;45426;44.726;10.390;2024-03-08T08:51:19;40.33;;;19.23;;
59607;SDS011;45426;44.726;10.390;2024-03-08T08:53:45;41.72;;;18.42;;
59607;SDS011;45426;44.726;10.390;2024-03-08T08:56:15;39.95;;;17.95;;
59607;SDS011;45426;44.726;10.390;2024-03-08T08:58:41;39.10;;;18.55;;
59607;SDS011;45426;44.726;10.390;2024-03-08T09:01:10;37.95;;;18.17;;
59607;SDS011;45426;44.726;10.390;2024-03-08T09:03:36;40.60;;;18.52;;
59607;SDS011;45426;44.726;10.390;2024-03-08T09:06:03;39.72;;;18.30;;
59607;SDS011;45426;44.726;10.390;2024-03-08T09:08:29;40.17;;;19.08;;
59607;SDS011;45426;44.726;10.390;2024-03-08T09:10:54;41.63;;;18.98;;
59607;SDS011;45426;44.726;10.390;2024-03-08T09:13:20;40.35;;;18.60;;
59607;SDS011;45426;44.726;10.390;2024-03-08T09:15:46;39.30;;;18.65;;
59607;SDS011;45426;44.726;10.390;2024-03-08T09:18:11;39.38;;;18.23;;
59607;SDS011;45426;44.726;10.390;2024-03-08T09:20:37;39.85;;;18.48;;
59607;SDS011;45426;44.726;10.390;2024-03-08T09:23:02;41.78;;;18.77;;
59607;SDS011;45426;44.726;10.390;2024-03-08T09:25:29;38.60;;;19.25;;
59607;SDS011;45426;44.726;10.390;2024-03-08T09:27:54;35.35;;;17.58;;
59607;SDS011;45426;44.726;10.390;2024-03-08T09:30:20;35.55;;;17.38;;
59607;SDS011;45426;44.726;10.390;2024-03-08T09:32:46;37.05;;;18.50;;
59607;SDS011;45426;44.726;10.390;2024-03-08T09:35:12;37.10;;;18.17;;
59607;SDS011;45426;44.726;10.390;2024-03-08T09:37:38;39.83;;;18.10;;
59607;SDS011;45426;44.726;10.390;2024-03-08T09:40:03;40.38;;;18.42;;
59607;SDS011;45426;44.726;10.390;2024-03-08T09:42:34;35.78;;;17.98;;
59607;SDS011;45426;44.726;10.390;2024-03-08T09:45:04;36.35;;;17.85;;
59607;SDS011;45426;44.726;10.390;2024-03-08T09:47:36;34.28;;;16.70;;
59607;SDS011;45426;44.726;10.390;2024-03-08T09:50:06;35.53;;;17.70;;
59607;SDS011;45426;44.726;10.390;2024-03-08T09:52:35;33.25;;;16.65;;
59607;SDS011;45426;44.726;10.390;2024-03-08T09:55:04;34.72;;;17.25;;
59607;SDS011;45426;44.726;10.390;2024-03-08T09:57:31;30.63;;;15.75;;
59607;SDS011;45426;44.726;10.390;2024-03-08T10:00:01;33.17;;;16.70;;
59607;SDS011;45426;44.726;10.390;2024-03-08T10:02:31;33.38;;;17.23;;
59607;SDS011;45426;44.726;10.390;2024-03-08T10:04:59;31.88;;;16.55;;
59607;SDS011;45426;44.726;10.390;2024-03-08T10:07:28;31.90;;;16.05;;
59607;SDS011;45426;44.726;10.390;2024-03-08T10:09:58;33.03;;;16.17;;
59607;SDS011;45426;44.726;10.390;2024-03-08T10:12:24;33.03;;;16.27;;
59607;SDS011;45426;44.726;10.390;2024-03-08T10:14:49;33.78;;;16.23;;
59607;SDS011;45426;44.726;10.390;2024-03-08T10:17:15;31.08;;;14.77;;
59607;SDS011;45426;44.726;10.390;2024-03-08T10:19:49;30.55;;;15.70;;
59607;SDS011;45426;44.726;10.390;2024-03-08T10:22:15;30.98;;;15.70;;
59607;SDS011;45426;44.726;10.390;2024-03-08T10:24:41;31.75;;;16.15;;
59607;SDS011;45426;44.726;10.390;2024-03-08T10:27:06;32.45;;;16.15;;
59607;SDS011;45426;44.726;10.390;2024-03-08T10:29:32;29.27;;;14.65;;
59607;SDS011;45426;44.726;10.390;2024-03-08T10:31:58;31.95;;;15.95;;
59607;SDS011;45426;44.726;10.390;2024-03-08T10:34:24;29.75;;;15.18;;
59607;SDS011;45426;44.726;10.390;2024-03-08T10:36:51;30.33;;;15.02;;
59607;SDS011;45426;44.726;10.390;2024-03-08T10:39:24;29.90;;;14.77;;
59607;SDS011;45426;44.726;10.390;2024-03-08T10:41:52;29.65;;;14.93;;
59607;SDS011;45426;44.726;10.390;2024-03-08T10:44:32;27.45;;;14.50;;
59607;SDS011;45426;44.726;10.390;2024-03-08T10:47:19;30.35;;;14.95;;
59607;SDS011;45426;44.726;10.390;2024-03-08T10:49:54;29.65;;;14.63;;
59607;SDS011;45426;44.726;10.390;2024-03-08T10:52:29;31.42;;;14.85;;
59607;SDS011;45426;44.726;10.390;2024-03-08T10:54:54;31.23;;;14.30;;
59607;SDS011;45426;44.726;10.390;2024-03-08T10:57:22;30.98;;;15.05;;
59607;SDS011;45426;44.726;10.390;2024-03-08T10:59:49;29.80;;;14.60;;
59607;SDS011;45426;44.726;10.390;2024-03-08T11:02:16;30.10;;;16.27;;
59607;SDS011;45426;44.726;10.390;2024-03-08T11:04:46;31.05;;;15.98;;
59607;SDS011;45426;44.726;10.390;2024-03-08T11:07:15;33.03;;;17.45;;
59607;SDS011;45426;44.726;10.390;2024-03-08T11:09:45;33.25;;;16.90;;
59607;SDS011;45426;44.726;10.390;2024-03-08T11:14:46;30.85;;;16.38;;
59607;SDS011;45426;44.726;10.390;2024-03-08T11:17:15;32.58;;;17.08;;
59607;SDS011;45426;44.726;10.390;2024-03-08T11:19:47;32.88;;;16.63;;
59607;SDS011;45426;44.726;10.390;2024-03-08T11:22:23;31.38;;;16.60;;
59607;SDS011;45426;44.726;10.390;2024-03-08T11:24:59;29.33;;;15.45;;
59607;SDS011;45426;44.726;10.390;2024-03-08T11:27:28;27.20;;;14.00;;
59607;SDS011;45426;44.726;10.390;2024-03-08T11:30:04;26.83;;;15.25;;
59607;SDS011;45426;44.726;10.390;2024-03-08T11:32:37;27.75;;;14.80;;
59607;SDS011;45426;44.726;10.390;2024-03-08T11:35:07;26.15;;;13.68;;
59607;SDS011;45426;44.726;10.390;2024-03-08T11:37:43;24.70;;;12.77;;
59607;SDS011;45426;44.726;10.390;2024-03-08T11:40:13;21.15;;;12.27;;
59607;SDS011;45426;44.726;10.390;2024-03-08T11:42:48;23.88;;;12.60;;
59607;SDS011;45426;44.726;10.390;2024-03-08T11:45:17;23.48;;;12.65;;
59607;SDS011;45426;44.726;10.390;2024-03-08T11:47:46;24.17;;;12.00;;
59607;SDS011;45426;44.726;10.390;2024-03-08T11:50:12;21.20;;;11.38;;
59607;SDS011;45426;44.726;10.390;2024-03-08T11:52:38;21.13;;;12.00;;
59607;SDS011;45426;44.726;10.390;2024-03-08T11:55:04;21.00;;;11.32;;
59607;SDS011;45426;44.726;10.390;2024-03-08T11:57:31;20.75;;;12.15;;
59607;SDS011;45426;44.726;10.390;2024-03-08T11:59:57;20.63;;;11.82;;
59607;SDS011;45426;44.726;10.390;2024-03-08T12:02:24;21.65;;;11.30;;
59607;SDS011;45426;44.726;10.390;2024-03-08T12:04:56;21.98;;;11.80;;
59607;SDS011;45426;44.726;10.390;2024-03-08T12:07:23;19.13;;;11.60;;
59607;SDS011;45426;44.726;10.390;2024-03-08T12:12:49;22.50;;;11.95;;
59607;SDS011;45426;44.726;10.390;2024-03-08T12:15:19;18.88;;;11.40;;
59607;SDS011;45426;44.726;10.390;2024-03-08T12:17:48;21.10;;;11.63;;
59607;SDS011;45426;44.726;10.390;2024-03-08T12:20:16;20.95;;;10.98;;
59607;SDS011;45426;44.726;10.390;2024-03-08T12:22:44;22.95;;;12.23;;
59607;SDS011;45426;44.726;10.390;2024-03-08T12:25:13;21.85;;;12.35;;
59607;SDS011;45426;44.726;10.390;2024-03-08T12:27:39;18.67;;;11.52;;
59607;SDS011;45426;44.726;10.390;2024-03-08T12:33:00;19.25;;;12.07;;
59607;SDS011;45426;44.726;10.390;2024-03-08T12:35:27;18.70;;;10.82;;
59607;SDS011;45426;44.726;10.390;2024-03-08T12:37:57;19.48;;;11.82;;
59607;SDS011;45426;44.726;10.390;2024-03-08T12:40:26;21.42;;;12.30;;
59607;SDS011;45426;44.726;10.390;2024-03-08T12:42:54;20.17;;;11.32;;
59607;SDS011;45426;44.726;10.390;2024-03-08T12:45:20;18.77;;;11.05;;
59607;SDS011;45426;44.726;10.390;2024-03-08T12:47:49;17.35;;;10.85;;
59607;SDS011;45426;44.726;10.390;2024-03-08T12:50:15;20.73;;;11.13;;
59607;SDS011;45426;44.726;10.390;2024-03-08T12:52:46;20.95;;;11.65;;
59607;SDS011;45426;44.726;10.390;2024-03-08T12:55:13;19.75;;;11.73;;
59607;SDS011;45426;44.726;10.390;2024-03-08T12:57:39;18.88;;;11.00;;
59607;SDS011;45426;44.726;10.390;2024-03-08T13:00:05;17.13;;;10.20;;
59607;SDS011;45426;44.726;10.390;2024-03-08T13:02:31;16.95;;;9.55;;
59607;SDS011;45426;44.726;10.390;2024-03-08T13:04:57;15.52;;;8.95;;
59607;SDS011;45426;44.726;10.390;2024-03-08T13:07:24;19.45;;;9.65;;
59607;SDS011;45426;44.726;10.390;2024-03-08T13:09:53;17.83;;;9.57;;
59607;SDS011;45426;44.726;10.390;2024-03-08T13:12:19;16.60;;;8.68;;
59607;SDS011;45426;44.726;10.390;2024-03-08T13:14:46;16.23;;;9.23;;
59607;SDS011;45426;44.726;10.390;2024-03-08T13:17:13;17.58;;;9.15;;
59607;SDS011;45426;44.726;10.390;2024-03-08T13:19:39;15.60;;;9.10;;
59607;SDS011;45426;44.726;10.390;2024-03-08T13:22:05;16.58;;;9.25;;
59607;SDS011;45426;44.726;10.390;2024-03-08T13:24:31;20.60;;;10.02;;
59607;SDS011;45426;44.726;10.390;2024-03-08T13:26:56;16.45;;;9.00;;
59607;SDS011;45426;44.726;10.390;2024-03-08T13:29:23;16.23;;;8.77;;
59607;SDS011;45426;44.726;10.390;2024-03-08T13:31:49;17.98;;;9.52;;
59607;SDS011;45426;44.726;10.390;2024-03-08T13:34:17;17.23;;;9.68;;
59607;SDS011;45426;44.726;10.390;2024-03-08T13:36:43;18.48;;;8.77;;
59607;SDS011;45426;44.726;10.390;2024-03-08T13:39:10;15.95;;;9.00;;
59607;SDS011;45426;44.726;10.390;2024-03-08T13:41:40;17.30;;;9.38;;
59607;SDS011;45426;44.726;10.390;2024-03-08T13:44:12;15.75;;;9.05;;
59607;SDS011;45426;44.726;10.390;2024-03-08T13:46:38;16.70;;;9.15;;
59607;SDS011;45426;44.726;10.390;2024-03-08T13:49:04;18.15;;;9.20;;
59607;SDS011;45426;44.726;10.390;2024-03-08T13:51:33;16.65;;;9.07;;
59607;SDS011;45426;44.726;10.390;2024-03-08T13:53:59;18.27;;;9.48;;
59607;SDS011;45426;44.726;10.390;2024-03-08T13:56:25;15.82;;;9.63;;
59607;SDS011;45426;44.726;10.390;2024-03-08T13:58:56;18.70;;;9.32;;
59607;SDS011;45426;44.726;10.390;2024-03-08T14:01:22;17.45;;;9.68;;
59607;SDS011;45426;44.726;10.390;2024-03-08T14:03:48;19.45;;;10.18;;
59607;SDS011;45426;44.726;10.390;2024-03-08T14:06:13;16.67;;;9.18;;
59607;SDS011;45426;44.726;10.390;2024-03-08T14:08:39;18.55;;;10.00;;
59607;SDS011;45426;44.726;10.390;2024-03-08T14:11:05;20.55;;;9.90;;
59607;SDS011;45426;44.726;10.390;2024-03-08T14:13:42;18.98;;;10.18;;
59607;SDS011;45426;44.726;10.390;2024-03-08T14:16:10;17.67;;;10.23;;
59607;SDS011;45426;44.726;10.390;2024-03-08T14:18:35;20.23;;;10.07;;
59607;SDS011;45426;44.726;10.390;2024-03-08T14:21:01;20.35;;;10.05;;
59607;SDS011;45426;44.726;10.390;2024-03-08T14:23:29;18.10;;;10.13;;
59607;SDS011;45426;44.726;10.390;2024-03-08T14:25:55;18.95;;;10.00;;